sensor_id;sensor_type;location;lat;lon;timestamp;P1;durP1;ratioP1;P2;durP2;ratioP2
75818;SDS011;64453;51.944;9.796;2023-02-13T00:01:12;8.33;;;7.37;;
75818;SDS011;64453;51.944;9.796;2023-02-13T00:03:38;9.77;;;8.87;;
75818;SDS011;64453;51.944;9.796;2023-02-13T00:06:05;9.23;;;8.47;;
75818;SDS011;64453;51.944;9.796;2023-02-13T00:08:33;8.67;;;7.87;;
75818;SDS011;64453;51.944;9.796;2023-02-13T00:11:00;7.87;;;7.17;;
75818;SDS011;64453;51.944;9.796;2023-02-13T00:13:27;7.30;;;6.70;;
75818;SDS011;64453;51.944;9.796;2023-02-13T00:15:55;7.60;;;7.00;;
75818;SDS011;64453;51.944;9.796;2023-02-13T00:18:25;7.93;;;7.23;;
75818;SDS011;64453;51.944;9.796;2023-02-13T00:20:56;7.00;;;6.43;;
75818;SDS011;64453;51.944;9.796;2023-02-13T00:23:28;7.33;;;6.73;;
75818;SDS011;64453;51.944;9.796;2023-02-13T00:25:56;7.10;;;6.50;;
75818;SDS011;64453;51.944;9.796;2023-02-13T00:28:25;7.67;;;7.07;;
75818;SDS011;64453;51.944;9.796;2023-02-13T00:30:52;8.10;;;7.30;;
75818;SDS011;64453;51.944;9.796;2023-02-13T00:33:19;7.57;;;6.97;;
75818;SDS011;64453;51.944;9.796;2023-02-13T00:35:47;7.70;;;7.03;;
75818;SDS011;64453;51.944;9.796;2023-02-13T00:38:14;6.93;;;6.43;;
75818;SDS011;64453;51.944;9.796;2023-02-13T00:40:40;8.57;;;7.77;;
75818;SDS011;64453;51.944;9.796;2023-02-13T00:43:07;7.60;;;6.90;;
75818;SDS011;64453;51.944;9.796;2023-02-13T00:45:34;6.83;;;6.30;;
75818;SDS011;64453;51.944;9.796;2023-02-13T00:48:01;7.17;;;6.47;;
75818;SDS011;64453;51.944;9.796;2023-02-13T00:50:27;6.60;;;6.10;;
75818;SDS011;64453;51.944;9.796;2023-02-13T00:52:55;7.63;;;7.03;;
75818;SDS011;64453;51.944;9.796;2023-02-13T00:55:23;7.73;;;7.13;;
75818;SDS011;64453;51.944;9.796;2023-02-13T00:57:49;7.53;;;6.90;;
75818;SDS011;64453;51.944;9.796;2023-02-13T01:00:16;6.70;;;6.20;;
75818;SDS011;64453;51.944;9.796;2023-02-13T01:02:44;7.07;;;6.47;;
75818;SDS011;64453;51.944;9.796;2023-02-13T01:05:11;6.50;;;6.00;;
75818;SDS011;64453;51.944;9.796;2023-02-13T01:07:38;6.63;;;6.13;;
75818;SDS011;64453;51.944;9.796;2023-02-13T01:10:07;6.60;;;6.00;;
75818;SDS011;64453;51.944;9.796;2023-02-13T01:12:35;6.43;;;6.03;;
75818;SDS011;64453;51.944;9.796;2023-02-13T01:15:02;6.70;;;6.20;;
75818;SDS011;64453;51.944;9.796;2023-02-13T01:17:30;7.43;;;6.47;;
75818;SDS011;64453;51.944;9.796;2023-02-13T01:19:57;8.90;;;8.10;;
75818;SDS011;64453;51.944;9.796;2023-02-13T01:22:24;9.00;;;8.10;;
75818;SDS011;64453;51.944;9.796;2023-02-13T01:24:51;11.30;;;10.10;;
75818;SDS011;64453;51.944;9.796;2023-02-13T01:27:19;11.70;;;9.30;;
75818;SDS011;64453;51.944;9.796;2023-02-13T01:29:45;10.30;;;9.30;;
75818;SDS011;64453;51.944;9.796;2023-02-13T01:32:12;9.33;;;8.53;;
75818;SDS011;64453;51.944;9.796;2023-02-13T01:34:39;9.13;;;8.17;;
75818;SDS011;64453;51.944;9.796;2023-02-13T01:37:06;12.00;;;10.80;;
75818;SDS011;64453;51.944;9.796;2023-02-13T01:39:33;11.77;;;10.40;;
75818;SDS011;64453;51.944;9.796;2023-02-13T01:42:00;11.00;;;10.00;;
75818;SDS011;64453;51.944;9.796;2023-02-13T01:44:48;11.67;;;10.57;;
75818;SDS011;64453;51.944;9.796;2023-02-13T01:47:21;10.47;;;9.50;;
75818;SDS011;64453;51.944;9.796;2023-02-13T01:49:54;9.27;;;8.37;;
75818;SDS011;64453;51.944;9.796;2023-02-13T01:52:30;9.53;;;8.73;;
75818;SDS011;64453;51.944;9.796;2023-02-13T01:54:58;9.73;;;8.83;;
75818;SDS011;64453;51.944;9.796;2023-02-13T01:57:25;9.20;;;8.43;;
75818;SDS011;64453;51.944;9.796;2023-02-13T01:59:59;10.70;;;8.60;;
75818;SDS011;64453;51.944;9.796;2023-02-13T02:02:32;11.43;;;8.53;;
75818;SDS011;64453;51.944;9.796;2023-02-13T02:05:05;8.20;;;7.40;;
75818;SDS011;64453;51.944;9.796;2023-02-13T02:07:33;8.53;;;7.67;;
75818;SDS011;64453;51.944;9.796;2023-02-13T02:10:04;8.47;;;7.57;;
75818;SDS011;64453;51.944;9.796;2023-02-13T02:12:36;7.50;;;6.90;;
75818;SDS011;64453;51.944;9.796;2023-02-13T02:15:15;8.10;;;7.40;;
75818;SDS011;64453;51.944;9.796;2023-02-13T02:17:42;8.63;;;7.90;;
75818;SDS011;64453;51.944;9.796;2023-02-13T02:20:14;7.83;;;7.13;;
75818;SDS011;64453;51.944;9.796;2023-02-13T02:22:58;7.30;;;6.80;;
75818;SDS011;64453;51.944;9.796;2023-02-13T02:26:16;7.53;;;6.43;;
75818;SDS011;64453;51.944;9.796;2023-02-13T02:32:37;7.07;;;6.50;;
75818;SDS011;64453;51.944;9.796;2023-02-13T02:35:18;6.70;;;6.03;;
75818;SDS011;64453;51.944;9.796;2023-02-13T02:37:59;7.20;;;6.63;;
75818;SDS011;64453;51.944;9.796;2023-02-13T02:40:36;6.70;;;6.20;;
75818;SDS011;64453;51.944;9.796;2023-02-13T02:43:21;6.47;;;5.87;;
75818;SDS011;64453;51.944;9.796;2023-02-13T02:46:00;7.10;;;6.47;;
75818;SDS011;64453;51.944;9.796;2023-02-13T02:48:37;5.80;;;5.30;;
75818;SDS011;64453;51.944;9.796;2023-02-13T02:51:28;5.90;;;5.40;;
75818;SDS011;64453;51.944;9.796;2023-02-13T02:54:01;6.03;;;5.53;;
75818;SDS011;64453;51.944;9.796;2023-02-13T02:56:56;5.47;;;4.90;;
75818;SDS011;64453;51.944;9.796;2023-02-13T02:59:30;5.93;;;5.43;;
75818;SDS011;64453;51.944;9.796;2023-02-13T03:02:17;6.17;;;5.67;;
75818;SDS011;64453;51.944;9.796;2023-02-13T03:05:03;6.30;;;5.80;;
75818;SDS011;64453;51.944;9.796;2023-02-13T03:07:55;6.20;;;5.60;;
75818;SDS011;64453;51.944;9.796;2023-02-13T03:10:24;6.40;;;5.80;;
75818;SDS011;64453;51.944;9.796;2023-02-13T03:13:14;5.87;;;5.37;;
75818;SDS011;64453;51.944;9.796;2023-02-13T03:15:56;5.33;;;4.93;;
75818;SDS011;64453;51.944;9.796;2023-02-13T03:18:44;5.60;;;5.10;;
75818;SDS011;64453;51.944;9.796;2023-02-13T03:21:37;5.10;;;4.70;;
75818;SDS011;64453;51.944;9.796;2023-02-13T03:24:42;5.20;;;4.80;;
75818;SDS011;64453;51.944;9.796;2023-02-13T03:27:19;4.60;;;4.20;;
75818;SDS011;64453;51.944;9.796;2023-02-13T03:30:18;5.00;;;4.60;;
75818;SDS011;64453;51.944;9.796;2023-02-13T03:33:00;5.57;;;5.00;;
75818;SDS011;64453;51.944;9.796;2023-02-13T03:35:45;5.30;;;4.90;;
75818;SDS011;64453;51.944;9.796;2023-02-13T03:38:37;5.10;;;4.70;;
75818;SDS011;64453;51.944;9.796;2023-02-13T03:41:13;5.20;;;4.80;;
75818;SDS011;64453;51.944;9.796;2023-02-13T03:43:48;5.00;;;4.60;;
75818;SDS011;64453;51.944;9.796;2023-02-13T03:46:33;4.63;;;4.23;;
75818;SDS011;64453;51.944;9.796;2023-02-13T03:49:05;4.80;;;4.40;;
75818;SDS011;64453;51.944;9.796;2023-02-13T03:51:54;4.27;;;3.93;;
75818;SDS011;64453;51.944;9.796;2023-02-13T03:54:27;3.87;;;3.67;;
75818;SDS011;64453;51.944;9.796;2023-02-13T03:57:18;4.70;;;4.27;;
75818;SDS011;64453;51.944;9.796;2023-02-13T04:00:05;5.17;;;4.77;;
75818;SDS011;64453;51.944;9.796;2023-02-13T04:02:42;4.93;;;4.23;;
75818;SDS011;64453;51.944;9.796;2023-02-13T04:05:19;4.60;;;4.30;;
75818;SDS011;64453;51.944;9.796;2023-02-13T04:07:50;4.00;;;3.70;;
75818;SDS011;64453;51.944;9.796;2023-02-13T04:10:18;4.70;;;4.30;;
75818;SDS011;64453;51.944;9.796;2023-02-13T04:12:49;4.67;;;4.37;;
75818;SDS011;64453;51.944;9.796;2023-02-13T04:15:24;4.90;;;4.40;;
75818;SDS011;64453;51.944;9.796;2023-02-13T04:17:57;3.53;;;3.23;;
75818;SDS011;64453;51.944;9.796;2023-02-13T04:20:30;4.03;;;3.83;;
75818;SDS011;64453;51.944;9.796;2023-02-13T04:23:02;4.40;;;4.10;;
75818;SDS011;64453;51.944;9.796;2023-02-13T04:25:32;4.00;;;3.70;;
75818;SDS011;64453;51.944;9.796;2023-02-13T04:27:59;4.33;;;4.03;;
75818;SDS011;64453;51.944;9.796;2023-02-13T04:30:26;3.67;;;3.47;;
75818;SDS011;64453;51.944;9.796;2023-02-13T04:32:53;4.10;;;3.80;;
75818;SDS011;64453;51.944;9.796;2023-02-13T04:35:20;3.43;;;3.13;;
75818;SDS011;64453;51.944;9.796;2023-02-13T04:37:47;3.90;;;3.37;;
75818;SDS011;64453;51.944;9.796;2023-02-13T04:40:14;4.00;;;3.80;;
75818;SDS011;64453;51.944;9.796;2023-02-13T04:42:43;4.40;;;4.10;;
75818;SDS011;64453;51.944;9.796;2023-02-13T04:45:13;4.73;;;4.37;;
75818;SDS011;64453;51.944;9.796;2023-02-13T04:47:40;4.37;;;4.07;;
75818;SDS011;64453;51.944;9.796;2023-02-13T04:50:07;4.00;;;3.63;;
75818;SDS011;64453;51.944;9.796;2023-02-13T04:52:35;3.77;;;3.50;;
75818;SDS011;64453;51.944;9.796;2023-02-13T04:55:02;4.53;;;4.23;;
75818;SDS011;64453;51.944;9.796;2023-02-13T04:57:29;4.33;;;3.97;;
75818;SDS011;64453;51.944;9.796;2023-02-13T04:59:57;4.17;;;3.97;;
75818;SDS011;64453;51.944;9.796;2023-02-13T05:02:24;4.63;;;4.33;;
75818;SDS011;64453;51.944;9.796;2023-02-13T05:04:51;4.27;;;3.97;;
75818;SDS011;64453;51.944;9.796;2023-02-13T05:07:18;4.93;;;4.60;;
75818;SDS011;64453;51.944;9.796;2023-02-13T05:09:45;6.47;;;4.00;;
75818;SDS011;64453;51.944;9.796;2023-02-13T05:12:11;4.00;;;3.80;;
75818;SDS011;64453;51.944;9.796;2023-02-13T05:14:39;4.20;;;3.90;;
75818;SDS011;64453;51.944;9.796;2023-02-13T05:17:07;3.70;;;3.50;;
75818;SDS011;64453;51.944;9.796;2023-02-13T05:19:34;5.27;;;3.97;;
75818;SDS011;64453;51.944;9.796;2023-02-13T05:22:01;5.03;;;4.63;;
75818;SDS011;64453;51.944;9.796;2023-02-13T05:24:46;4.30;;;4.00;;
75818;SDS011;64453;51.944;9.796;2023-02-13T05:27:12;4.60;;;4.30;;
75818;SDS011;64453;51.944;9.796;2023-02-13T05:29:39;4.40;;;4.10;;
75818;SDS011;64453;51.944;9.796;2023-02-13T05:32:07;4.73;;;4.33;;
75818;SDS011;64453;51.944;9.796;2023-02-13T05:34:34;4.47;;;4.17;;
75818;SDS011;64453;51.944;9.796;2023-02-13T05:37:01;4.40;;;4.00;;
75818;SDS011;64453;51.944;9.796;2023-02-13T05:39:28;5.40;;;4.90;;
75818;SDS011;64453;51.944;9.796;2023-02-13T05:41:55;6.07;;;5.57;;
75818;SDS011;64453;51.944;9.796;2023-02-13T05:44:22;4.73;;;4.40;;
75818;SDS011;64453;51.944;9.796;2023-02-13T05:46:49;4.60;;;4.20;;
75818;SDS011;64453;51.944;9.796;2023-02-13T05:49:18;5.00;;;4.60;;
75818;SDS011;64453;51.944;9.796;2023-02-13T05:51:47;5.17;;;4.77;;
75818;SDS011;64453;51.944;9.796;2023-02-13T05:54:16;5.03;;;4.57;;
75818;SDS011;64453;51.944;9.796;2023-02-13T05:56:42;5.53;;;5.00;;
75818;SDS011;64453;51.944;9.796;2023-02-13T05:59:10;4.90;;;4.60;;
75818;SDS011;64453;51.944;9.796;2023-02-13T06:01:36;4.97;;;4.67;;
75818;SDS011;64453;51.944;9.796;2023-02-13T06:04:03;5.53;;;5.13;;
75818;SDS011;64453;51.944;9.796;2023-02-13T06:06:32;5.33;;;4.93;;
75818;SDS011;64453;51.944;9.796;2023-02-13T06:08:58;4.60;;;4.27;;
75818;SDS011;64453;51.944;9.796;2023-02-13T06:11:25;5.50;;;5.00;;
75818;SDS011;64453;51.944;9.796;2023-02-13T06:13:52;4.97;;;4.50;;
75818;SDS011;64453;51.944;9.796;2023-02-13T06:16:19;5.70;;;5.20;;
75818;SDS011;64453;51.944;9.796;2023-02-13T06:18:46;5.73;;;5.33;;
75818;SDS011;64453;51.944;9.796;2023-02-13T06:21:13;7.40;;;6.00;;
75818;SDS011;64453;51.944;9.796;2023-02-13T06:23:42;5.77;;;5.27;;
75818;SDS011;64453;51.944;9.796;2023-02-13T06:26:09;6.00;;;5.50;;
75818;SDS011;64453;51.944;9.796;2023-02-13T06:28:36;6.67;;;6.20;;
75818;SDS011;64453;51.944;9.796;2023-02-13T06:31:03;6.40;;;5.90;;
75818;SDS011;64453;51.944;9.796;2023-02-13T06:33:30;5.70;;;5.20;;
75818;SDS011;64453;51.944;9.796;2023-02-13T06:35:57;5.97;;;5.57;;
75818;SDS011;64453;51.944;9.796;2023-02-13T06:38:24;6.40;;;5.70;;
75818;SDS011;64453;51.944;9.796;2023-02-13T06:40:57;6.70;;;6.00;;
75818;SDS011;64453;51.944;9.796;2023-02-13T06:43:26;6.90;;;6.30;;
75818;SDS011;64453;51.944;9.796;2023-02-13T06:45:53;7.60;;;6.90;;
75818;SDS011;64453;51.944;9.796;2023-02-13T06:48:19;8.60;;;7.80;;
75818;SDS011;64453;51.944;9.796;2023-02-13T06:50:46;7.23;;;6.53;;
75818;SDS011;64453;51.944;9.796;2023-02-13T06:53:16;8.60;;;7.73;;
75818;SDS011;64453;51.944;9.796;2023-02-13T06:55:48;8.53;;;7.83;;
75818;SDS011;64453;51.944;9.796;2023-02-13T06:58:18;8.57;;;7.87;;
75818;SDS011;64453;51.944;9.796;2023-02-13T07:00:45;7.63;;;7.03;;
75818;SDS011;64453;51.944;9.796;2023-02-13T07:03:12;9.20;;;8.40;;
75818;SDS011;64453;51.944;9.796;2023-02-13T07:05:39;8.63;;;7.87;;
75818;SDS011;64453;51.944;9.796;2023-02-13T07:08:06;8.03;;;7.23;;
75818;SDS011;64453;51.944;9.796;2023-02-13T07:10:35;7.70;;;7.10;;
75818;SDS011;64453;51.944;9.796;2023-02-13T07:13:03;6.50;;;6.00;;
75818;SDS011;64453;51.944;9.796;2023-02-13T07:15:31;5.60;;;5.10;;
75818;SDS011;64453;51.944;9.796;2023-02-13T07:17:59;5.13;;;4.73;;
75818;SDS011;64453;51.944;9.796;2023-02-13T07:20:27;5.80;;;4.90;;
75818;SDS011;64453;51.944;9.796;2023-02-13T07:22:56;5.13;;;4.73;;
75818;SDS011;64453;51.944;9.796;2023-02-13T07:25:24;5.13;;;4.73;;
75818;SDS011;64453;51.944;9.796;2023-02-13T07:27:51;4.80;;;4.40;;
75818;SDS011;64453;51.944;9.796;2023-02-13T07:30:18;5.70;;;5.20;;
75818;SDS011;64453;51.944;9.796;2023-02-13T07:32:46;5.40;;;5.00;;
75818;SDS011;64453;51.944;9.796;2023-02-13T07:35:13;2.97;;;2.80;;
75818;SDS011;64453;51.944;9.796;2023-02-13T07:37:40;2.80;;;2.70;;
75818;SDS011;64453;51.944;9.796;2023-02-13T07:40:08;2.20;;;2.10;;
75818;SDS011;64453;51.944;9.796;2023-02-13T07:42:35;2.37;;;2.17;;
75818;SDS011;64453;51.944;9.796;2023-02-13T07:45:02;2.37;;;2.27;;
75818;SDS011;64453;51.944;9.796;2023-02-13T07:47:32;2.30;;;2.20;;
75818;SDS011;64453;51.944;9.796;2023-02-13T07:50:00;1.90;;;1.80;;
75818;SDS011;64453;51.944;9.796;2023-02-13T07:52:29;1.93;;;1.87;;
75818;SDS011;64453;51.944;9.796;2023-02-13T07:54:57;1.87;;;1.77;;
75818;SDS011;64453;51.944;9.796;2023-02-13T07:57:24;1.70;;;1.60;;
75818;SDS011;64453;51.944;9.796;2023-02-13T07:59:51;3.30;;;1.67;;
75818;SDS011;64453;51.944;9.796;2023-02-13T08:02:18;1.33;;;1.33;;
75818;SDS011;64453;51.944;9.796;2023-02-13T08:04:45;2.00;;;1.90;;
75818;SDS011;64453;51.944;9.796;2023-02-13T08:07:13;2.10;;;2.00;;
75818;SDS011;64453;51.944;9.796;2023-02-13T08:09:42;2.60;;;2.50;;
75818;SDS011;64453;51.944;9.796;2023-02-13T08:12:28;1.57;;;1.50;;
75818;SDS011;64453;51.944;9.796;2023-02-13T08:14:55;1.60;;;1.50;;
75818;SDS011;64453;51.944;9.796;2023-02-13T08:17:22;1.63;;;1.63;;
75818;SDS011;64453;51.944;9.796;2023-02-13T08:19:49;1.50;;;1.50;;
75818;SDS011;64453;51.944;9.796;2023-02-13T08:22:17;1.63;;;1.53;;
75818;SDS011;64453;51.944;9.796;2023-02-13T08:24:44;1.50;;;1.40;;
75818;SDS011;64453;51.944;9.796;2023-02-13T08:27:12;1.50;;;1.40;;
75818;SDS011;64453;51.944;9.796;2023-02-13T08:29:40;1.37;;;1.37;;
75818;SDS011;64453;51.944;9.796;2023-02-13T08:32:07;1.20;;;1.20;;
75818;SDS011;64453;51.944;9.796;2023-02-13T08:34:34;1.50;;;1.40;;
75818;SDS011;64453;51.944;9.796;2023-02-13T08:37:01;1.40;;;1.30;;
75818;SDS011;64453;51.944;9.796;2023-02-13T08:39:30;1.27;;;1.27;;
75818;SDS011;64453;51.944;9.796;2023-02-13T08:41:57;1.10;;;1.10;;
75818;SDS011;64453;51.944;9.796;2023-02-13T08:44:24;1.10;;;1.10;;
75818;SDS011;64453;51.944;9.796;2023-02-13T08:46:51;1.27;;;1.27;;
75818;SDS011;64453;51.944;9.796;2023-02-13T08:49:18;1.40;;;1.40;;
75818;SDS011;64453;51.944;9.796;2023-02-13T08:51:45;0.93;;;0.90;;
75818;SDS011;64453;51.944;9.796;2023-02-13T08:54:12;0.90;;;0.90;;
75818;SDS011;64453;51.944;9.796;2023-02-13T08:56:41;1.10;;;1.10;;
75818;SDS011;64453;51.944;9.796;2023-02-13T08:59:08;1.17;;;1.17;;
75818;SDS011;64453;51.944;9.796;2023-02-13T09:01:35;16.20;;;2.40;;
75818;SDS011;64453;51.944;9.796;2023-02-13T09:04:02;166.67;;;20.83;;
75818;SDS011;64453;51.944;9.796;2023-02-13T09:06:29;5.67;;;2.27;;
75818;SDS011;64453;51.944;9.796;2023-02-13T09:08:56;1.20;;;1.20;;
75818;SDS011;64453;51.944;9.796;2023-02-13T09:11:23;1.80;;;1.70;;
75818;SDS011;64453;51.944;9.796;2023-02-13T09:13:52;2.47;;;2.37;;
75818;SDS011;64453;51.944;9.796;2023-02-13T09:16:20;1.93;;;1.83;;
75818;SDS011;64453;51.944;9.796;2023-02-13T09:18:47;2.00;;;1.90;;
75818;SDS011;64453;51.944;9.796;2023-02-13T09:21:15;1.70;;;1.70;;
75818;SDS011;64453;51.944;9.796;2023-02-13T09:23:43;1.93;;;1.93;;
75818;SDS011;64453;51.944;9.796;2023-02-13T09:26:10;2.00;;;1.90;;
75818;SDS011;64453;51.944;9.796;2023-02-13T09:28:40;1.80;;;1.73;;
75818;SDS011;64453;51.944;9.796;2023-02-13T09:31:09;2.10;;;2.00;;
75818;SDS011;64453;51.944;9.796;2023-02-13T09:33:39;2.33;;;2.23;;
75818;SDS011;64453;51.944;9.796;2023-02-13T09:36:06;1.87;;;1.87;;
75818;SDS011;64453;51.944;9.796;2023-02-13T09:38:35;1.87;;;1.77;;
75818;SDS011;64453;51.944;9.796;2023-02-13T09:41:03;1.60;;;1.60;;
75818;SDS011;64453;51.944;9.796;2023-02-13T09:43:33;1.93;;;1.83;;
75818;SDS011;64453;51.944;9.796;2023-02-13T09:46:07;2.17;;;2.07;;
75818;SDS011;64453;51.944;9.796;2023-02-13T09:48:41;1.83;;;1.73;;
75818;SDS011;64453;51.944;9.796;2023-02-13T09:51:13;7.27;;;6.57;;
75818;SDS011;64453;51.944;9.796;2023-02-13T09:53:41;6.90;;;6.20;;
75818;SDS011;64453;51.944;9.796;2023-02-13T09:56:16;2.90;;;2.70;;
75818;SDS011;64453;51.944;9.796;2023-02-13T09:58:56;1.90;;;1.80;;
75818;SDS011;64453;51.944;9.796;2023-02-13T10:01:29;1.80;;;1.70;;
75818;SDS011;64453;51.944;9.796;2023-02-13T10:06:53;3.20;;;3.00;;
75818;SDS011;64453;51.944;9.796;2023-02-13T10:09:32;3.67;;;3.47;;
75818;SDS011;64453;51.944;9.796;2023-02-13T10:15:13;3.07;;;2.93;;
75818;SDS011;64453;51.944;9.796;2023-02-13T10:17:49;3.00;;;2.80;;
75818;SDS011;64453;51.944;9.796;2023-02-13T10:20:24;2.47;;;2.37;;
75818;SDS011;64453;51.944;9.796;2023-02-13T10:22:58;2.00;;;1.90;;
75818;SDS011;64453;51.944;9.796;2023-02-13T10:25:47;2.20;;;2.10;;
75818;SDS011;64453;51.944;9.796;2023-02-13T10:28:23;2.30;;;2.20;;
75818;SDS011;64453;51.944;9.796;2023-02-13T10:30:58;3.23;;;3.03;;
75818;SDS011;64453;51.944;9.796;2023-02-13T10:33:33;3.33;;;3.07;;
75818;SDS011;64453;51.944;9.796;2023-02-13T10:36:06;1.57;;;1.57;;
75818;SDS011;64453;51.944;9.796;2023-02-13T10:38:42;1.43;;;1.43;;
75818;SDS011;64453;51.944;9.796;2023-02-13T10:41:19;1.40;;;1.40;;
75818;SDS011;64453;51.944;9.796;2023-02-13T10:43:55;1.40;;;1.40;;
75818;SDS011;64453;51.944;9.796;2023-02-13T10:46:37;1.50;;;1.50;;
75818;SDS011;64453;51.944;9.796;2023-02-13T10:49:19;1.10;;;1.10;;
75818;SDS011;64453;51.944;9.796;2023-02-13T10:52:06;1.30;;;1.30;;
75818;SDS011;64453;51.944;9.796;2023-02-13T10:54:52;1.27;;;1.27;;
75818;SDS011;64453;51.944;9.796;2023-02-13T10:57:34;1.10;;;1.10;;
75818;SDS011;64453;51.944;9.796;2023-02-13T11:00:19;2.03;;;1.93;;
75818;SDS011;64453;51.944;9.796;2023-02-13T11:02:50;1.70;;;1.70;;
75818;SDS011;64453;51.944;9.796;2023-02-13T11:05:19;2.23;;;2.13;;
75818;SDS011;64453;51.944;9.796;2023-02-13T11:07:49;3.50;;;1.43;;
75818;SDS011;64453;51.944;9.796;2023-02-13T11:10:17;1.40;;;1.40;;
75818;SDS011;64453;51.944;9.796;2023-02-13T11:12:46;1.37;;;1.27;;
75818;SDS011;64453;51.944;9.796;2023-02-13T11:15:19;1.93;;;1.60;;
75818;SDS011;64453;51.944;9.796;2023-02-13T11:17:50;1.70;;;1.70;;
75818;SDS011;64453;51.944;9.796;2023-02-13T11:20:26;1.87;;;1.80;;
75818;SDS011;64453;51.944;9.796;2023-02-13T11:23:13;1.60;;;1.50;;
75818;SDS011;64453;51.944;9.796;2023-02-13T11:25:59;2.00;;;1.40;;
75818;SDS011;64453;51.944;9.796;2023-02-13T11:28:28;1.10;;;1.10;;
75818;SDS011;64453;51.944;9.796;2023-02-13T11:31:10;1.10;;;1.10;;
75818;SDS011;64453;51.944;9.796;2023-02-13T11:33:40;1.43;;;1.43;;
75818;SDS011;64453;51.944;9.796;2023-02-13T11:36:09;1.43;;;1.43;;
75818;SDS011;64453;51.944;9.796;2023-02-13T11:38:41;1.90;;;1.80;;
75818;SDS011;64453;51.944;9.796;2023-02-13T11:41:09;1.40;;;1.40;;
75818;SDS011;64453;51.944;9.796;2023-02-13T11:43:42;1.40;;;1.40;;
75818;SDS011;64453;51.944;9.796;2023-02-13T11:46:16;1.90;;;1.80;;
75818;SDS011;64453;51.944;9.796;2023-02-13T11:48:55;1.93;;;1.83;;
75818;SDS011;64453;51.944;9.796;2023-02-13T11:51:35;1.90;;;1.80;;
75818;SDS011;64453;51.944;9.796;2023-02-13T11:54:04;2.20;;;1.77;;
75818;SDS011;64453;51.944;9.796;2023-02-13T11:56:45;1.53;;;1.53;;
75818;SDS011;64453;51.944;9.796;2023-02-13T11:59:14;1.43;;;1.43;;
75818;SDS011;64453;51.944;9.796;2023-02-13T12:01:41;1.53;;;1.53;;
75818;SDS011;64453;51.944;9.796;2023-02-13T12:04:13;1.80;;;1.80;;
75818;SDS011;64453;51.944;9.796;2023-02-13T12:06:58;1.63;;;1.60;;
75818;SDS011;64453;51.944;9.796;2023-02-13T12:09:28;2.07;;;1.97;;
75818;SDS011;64453;51.944;9.796;2023-02-13T12:11:56;2.00;;;1.90;;
75818;SDS011;64453;51.944;9.796;2023-02-13T12:14:28;1.47;;;1.47;;
75818;SDS011;64453;51.944;9.796;2023-02-13T12:16:59;1.83;;;1.73;;
75818;SDS011;64453;51.944;9.796;2023-02-13T12:19:32;1.67;;;1.57;;
75818;SDS011;64453;51.944;9.796;2023-02-13T12:22:12;1.37;;;1.37;;
75818;SDS011;64453;51.944;9.796;2023-02-13T12:25:03;1.80;;;1.80;;
75818;SDS011;64453;51.944;9.796;2023-02-13T12:27:55;1.43;;;1.43;;
75818;SDS011;64453;51.944;9.796;2023-02-13T12:34:09;2.10;;;2.00;;
75818;SDS011;64453;51.944;9.796;2023-02-13T12:37:08;1.60;;;1.60;;
75818;SDS011;64453;51.944;9.796;2023-02-13T12:39:50;2.00;;;1.97;;
75818;SDS011;64453;51.944;9.796;2023-02-13T12:42:36;1.57;;;1.57;;
75818;SDS011;64453;51.944;9.796;2023-02-13T12:48:07;1.37;;;1.37;;
75818;SDS011;64453;51.944;9.796;2023-02-13T12:50:50;1.63;;;1.53;;
75818;SDS011;64453;51.944;9.796;2023-02-13T12:53:50;1.33;;;1.33;;
75818;SDS011;64453;51.944;9.796;2023-02-13T12:56:32;1.47;;;1.47;;
75818;SDS011;64453;51.944;9.796;2023-02-13T12:59:21;1.53;;;1.53;;
75818;SDS011;64453;51.944;9.796;2023-02-13T13:05:11;2.23;;;2.13;;
75818;SDS011;64453;51.944;9.796;2023-02-13T13:07:54;1.57;;;1.57;;
75818;SDS011;64453;51.944;9.796;2023-02-13T13:10:44;2.73;;;2.60;;
75818;SDS011;64453;51.944;9.796;2023-02-13T13:13:23;3.87;;;3.47;;
75818;SDS011;64453;51.944;9.796;2023-02-13T13:16:07;2.30;;;2.20;;
75818;SDS011;64453;51.944;9.796;2023-02-13T13:18:48;2.10;;;2.00;;
75818;SDS011;64453;51.944;9.796;2023-02-13T13:21:29;1.57;;;1.57;;
75818;SDS011;64453;51.944;9.796;2023-02-13T13:24:06;1.60;;;1.60;;
75818;SDS011;64453;51.944;9.796;2023-02-13T13:26:58;1.50;;;1.50;;
75818;SDS011;64453;51.944;9.796;2023-02-13T13:29:28;1.50;;;1.50;;
75818;SDS011;64453;51.944;9.796;2023-02-13T13:32:04;1.30;;;1.30;;
75818;SDS011;64453;51.944;9.796;2023-02-13T13:34:34;1.40;;;1.40;;
75818;SDS011;64453;51.944;9.796;2023-02-13T13:37:04;1.50;;;1.50;;
75818;SDS011;64453;51.944;9.796;2023-02-13T13:39:42;1.50;;;1.50;;
75818;SDS011;64453;51.944;9.796;2023-02-13T13:42:18;1.30;;;1.30;;
75818;SDS011;64453;51.944;9.796;2023-02-13T13:44:55;1.40;;;1.40;;
75818;SDS011;64453;51.944;9.796;2023-02-13T13:47:44;1.77;;;1.67;;
75818;SDS011;64453;51.944;9.796;2023-02-13T13:50:42;1.63;;;1.63;;
75818;SDS011;64453;51.944;9.796;2023-02-13T13:53:11;1.50;;;1.50;;
75818;SDS011;64453;51.944;9.796;2023-02-13T13:55:59;1.80;;;1.70;;
75818;SDS011;64453;51.944;9.796;2023-02-13T13:58:33;1.60;;;1.53;;
75818;SDS011;64453;51.944;9.796;2023-02-13T14:01:15;1.63;;;1.63;;
75818;SDS011;64453;51.944;9.796;2023-02-13T14:03:44;1.80;;;1.70;;
75818;SDS011;64453;51.944;9.796;2023-02-13T14:06:13;2.90;;;2.70;;
75818;SDS011;64453;51.944;9.796;2023-02-13T14:08:52;2.10;;;2.00;;
75818;SDS011;64453;51.944;9.796;2023-02-13T14:11:26;2.03;;;2.03;;
75818;SDS011;64453;51.944;9.796;2023-02-13T14:13:59;2.00;;;1.90;;
75818;SDS011;64453;51.944;9.796;2023-02-13T14:16:37;2.27;;;2.17;;
75818;SDS011;64453;51.944;9.796;2023-02-13T14:19:24;2.00;;;2.00;;
75818;SDS011;64453;51.944;9.796;2023-02-13T14:21:55;2.60;;;2.40;;
75818;SDS011;64453;51.944;9.796;2023-02-13T14:24:57;2.23;;;2.13;;
75818;SDS011;64453;51.944;9.796;2023-02-13T14:27:26;1.90;;;1.90;;
75818;SDS011;64453;51.944;9.796;2023-02-13T14:29:57;2.03;;;2.03;;
75818;SDS011;64453;51.944;9.796;2023-02-13T14:32:25;2.30;;;2.20;;
75818;SDS011;64453;51.944;9.796;2023-02-13T14:34:58;1.90;;;1.90;;
75818;SDS011;64453;51.944;9.796;2023-02-13T14:37:29;2.10;;;2.10;;
75818;SDS011;64453;51.944;9.796;2023-02-13T14:43:17;2.23;;;2.03;;
75818;SDS011;64453;51.944;9.796;2023-02-13T14:45:53;2.13;;;2.00;;
75818;SDS011;64453;51.944;9.796;2023-02-13T14:48:25;1.87;;;1.87;;
75818;SDS011;64453;51.944;9.796;2023-02-13T14:51:02;2.40;;;2.30;;
75818;SDS011;64453;51.944;9.796;2023-02-13T14:53:32;2.60;;;2.50;;
75818;SDS011;64453;51.944;9.796;2023-02-13T14:56:15;3.27;;;3.07;;
75818;SDS011;64453;51.944;9.796;2023-02-13T14:58:48;2.17;;;2.07;;
75818;SDS011;64453;51.944;9.796;2023-02-13T15:01:29;2.73;;;2.60;;
75818;SDS011;64453;51.944;9.796;2023-02-13T15:04:02;2.10;;;2.00;;
75818;SDS011;64453;51.944;9.796;2023-02-13T15:06:37;3.13;;;2.93;;
75818;SDS011;64453;51.944;9.796;2023-02-13T15:09:14;2.97;;;2.83;;
75818;SDS011;64453;51.944;9.796;2023-02-13T15:11:52;3.10;;;2.90;;
75818;SDS011;64453;51.944;9.796;2023-02-13T15:14:20;2.80;;;2.70;;
75818;SDS011;64453;51.944;9.796;2023-02-13T15:16:53;2.90;;;2.80;;
75818;SDS011;64453;51.944;9.796;2023-02-13T15:19:24;3.53;;;3.37;;
75818;SDS011;64453;51.944;9.796;2023-02-13T15:21:53;2.80;;;2.70;;
75818;SDS011;64453;51.944;9.796;2023-02-13T15:24:23;2.50;;;2.40;;
75818;SDS011;64453;51.944;9.796;2023-02-13T15:26:57;2.63;;;2.43;;
75818;SDS011;64453;51.944;9.796;2023-02-13T15:29:28;2.80;;;2.70;;
75818;SDS011;64453;51.944;9.796;2023-02-13T15:31:57;5.33;;;3.90;;
75818;SDS011;64453;51.944;9.796;2023-02-13T15:34:27;3.40;;;3.20;;
75818;SDS011;64453;51.944;9.796;2023-02-13T15:36:58;2.93;;;2.63;;
75818;SDS011;64453;51.944;9.796;2023-02-13T15:39:27;2.53;;;2.43;;
75818;SDS011;64453;51.944;9.796;2023-02-13T15:41:57;2.53;;;2.43;;
75818;SDS011;64453;51.944;9.796;2023-02-13T15:44:27;2.63;;;2.53;;